createdAt,value
2018-04-08T00:00:39.175Z,49.40
2018-04-08T00:01:40.263Z,49.90
2018-04-08T00:02:41.320Z,49.70
2018-04-08T00:03:43.108Z,49.70
2018-04-08T00:04:44.231Z,49.70
2018-04-08T00:05:45.344Z,49.50
2018-04-08T00:06:46.429Z,49.50
2018-04-08T00:07:47.505Z,49.50
2018-04-08T00:08:49.327Z,50.40
2018-04-08T00:09:50.418Z,49.70
2018-04-08T00:10:51.521Z,49.80
2018-04-08T00:11:52.609Z,50.20
2018-04-08T00:12:53.735Z,50.40
2018-04-08T00:13:54.796Z,50.30
2018-04-08T00:14:55.869Z,50.40
2018-04-08T00:15:56.940Z,50.50
2018-04-08T00:16:58.016Z,50.40
2018-04-08T00:17:59.073Z,50.90
2018-04-08T00:19:00.137Z,50.80
2018-04-08T00:20:01.197Z,50.20
2018-04-08T00:21:02.284Z,50.30
2018-04-08T00:22:03.352Z,50.30
2018-04-08T00:23:05.165Z,50.20
2018-04-08T00:24:06.248Z,50.30
2018-04-08T00:25:07.347Z,50.20
2018-04-08T00:26:08.438Z,50.30
2018-04-08T00:27:09.500Z,50.10
2018-04-08T00:28:10.554Z,49.70
2018-04-08T00:29:12.356Z,49.80
2018-04-08T00:30:13.420Z,49.80
2018-04-08T00:31:14.521Z,50.00
2018-04-08T00:32:15.581Z,51.00
2018-04-08T00:33:16.656Z,50.50
2018-04-08T00:34:17.716Z,50.50
2018-04-08T00:35:18.786Z,50.70
2018-04-08T00:36:20.613Z,50.80
2018-04-08T00:37:21.690Z,50.70
2018-04-08T00:38:23.485Z,51.30
2018-04-08T00:39:24.559Z,51.30
2018-04-08T00:40:25.617Z,51.20
2018-04-08T00:41:26.709Z,51.30
2018-04-08T00:42:27.779Z,51.20
2018-04-08T00:43:28.845Z,51.50
2018-04-08T00:44:29.921Z,51.20
2018-04-08T00:45:31.729Z,51.00
2018-04-08T00:46:32.837Z,51.00
2018-04-08T00:47:33.904Z,51.00
2018-04-08T00:48:34.987Z,50.80
2018-04-08T00:49:36.080Z,50.90
2018-04-08T00:50:37.159Z,50.90
2018-04-08T00:51:38.228Z,50.70
2018-04-08T00:52:39.320Z,50.80
2018-04-08T00:53:40.415Z,50.70
2018-04-08T00:54:42.248Z,51.60
2018-04-08T00:55:44.000Z,51.80
2018-04-08T00:56:45.013Z,51.80
2018-04-08T00:57:46.040Z,51.60
2018-04-08T00:58:47.053Z,51.70
2018-04-08T00:59:48.069Z,51.40
2018-04-08T01:00:49.073Z,51.60
2018-04-08T01:01:51.093Z,51.70
2018-04-08T01:02:52.846Z,51.80
2018-04-08T01:03:54.595Z,51.90
2018-04-08T01:04:56.332Z,51.80
2018-04-08T01:05:58.080Z,51.90
2018-04-08T01:06:59.833Z,51.90
2018-04-08T01:08:01.586Z,52.00
2018-04-08T01:09:03.338Z,52.30
2018-04-08T01:10:05.076Z,52.30
2018-04-08T01:11:06.829Z,52.50
2018-04-08T01:12:08.576Z,52.40
2018-04-08T01:13:10.317Z,52.40
2018-04-08T01:14:12.069Z,52.70
2018-04-08T01:15:13.817Z,52.40
2018-04-08T01:16:15.548Z,52.50
2018-04-08T01:17:16.581Z,52.60
2018-04-08T01:18:17.664Z,52.50
2018-04-08T01:19:19.497Z,52.80
2018-04-08T01:20:20.583Z,52.90
2018-04-08T01:21:21.672Z,52.80
2018-04-08T01:22:22.756Z,52.80
2018-04-08T01:23:23.828Z,52.80
2018-04-08T01:24:24.904Z,52.80
2018-04-08T01:25:25.985Z,52.80
2018-04-08T01:26:27.053Z,52.80
2018-04-08T01:27:28.141Z,52.60
2018-04-08T01:28:29.217Z,52.70
2018-04-08T01:29:30.294Z,52.70
2018-04-08T01:30:31.356Z,52.70
2018-04-08T01:31:32.428Z,52.60
2018-04-08T01:32:33.537Z,52.70
2018-04-08T01:33:35.353Z,52.60
2018-04-08T01:34:36.437Z,52.70
2018-04-08T01:35:37.502Z,52.60
2018-04-08T01:36:38.580Z,52.60
2018-04-08T01:37:39.666Z,52.60
2018-04-08T01:38:40.746Z,52.70
2018-04-08T01:39:42.550Z,52.80
2018-04-08T01:40:43.596Z,52.80
2018-04-08T01:41:44.664Z,53.00
2018-04-08T01:42:45.751Z,53.00
2018-04-08T01:43:46.821Z,53.10
2018-04-08T01:44:47.876Z,53.00
2018-04-08T01:45:48.934Z,52.90
2018-04-08T01:46:50.016Z,53.20
2018-04-08T01:47:51.828Z,53.50
2018-04-08T01:48:52.916Z,53.50
2018-04-08T01:49:53.980Z,53.50
2018-04-08T01:50:55.044Z,53.50
2018-04-08T01:51:56.099Z,53.50
2018-04-08T01:52:57.907Z,53.80
2018-04-08T01:53:58.960Z,53.80
2018-04-08T01:55:00.038Z,53.70
2018-04-08T01:56:01.104Z,54.40
2018-04-08T01:57:02.188Z,53.70
2018-04-08T01:58:03.269Z,53.70
2018-04-08T01:59:04.320Z,53.70
2018-04-08T02:00:05.392Z,54.00
2018-04-08T02:01:06.464Z,54.00
2018-04-08T02:02:07.536Z,53.90
2018-04-08T02:03:08.620Z,53.90
2018-04-08T02:04:09.692Z,54.00
2018-04-08T02:05:11.504Z,53.80
2018-04-08T02:06:12.560Z,53.80
2018-04-08T02:07:13.634Z,53.70
2018-04-08T02:08:14.698Z,53.80
2018-04-08T02:09:15.770Z,53.40
2018-04-08T02:10:17.583Z,53.90
2018-04-08T02:11:18.653Z,53.90
2018-04-08T02:12:20.453Z,54.00
2018-04-08T02:13:21.533Z,54.00
2018-04-08T02:14:22.596Z,54.30
2018-04-08T02:15:23.672Z,53.70
2018-04-08T02:16:24.744Z,53.70
2018-04-08T02:17:26.548Z,54.00
2018-04-08T02:18:27.614Z,54.00
2018-04-08T02:19:28.738Z,54.10
2018-04-08T02:20:29.768Z,54.20
2018-04-08T02:21:30.844Z,54.00
2018-04-08T02:22:31.900Z,54.20
2018-04-08T02:23:32.972Z,54.20
2018-04-08T02:24:34.040Z,54.00
2018-04-08T02:25:35.108Z,53.90
2018-04-08T02:26:36.189Z,53.80
2018-04-08T02:27:37.277Z,53.90
2018-04-08T02:28:38.368Z,53.90
2018-04-08T02:29:39.424Z,54.60
2018-04-08T02:30:40.520Z,53.80
2018-04-08T02:31:41.585Z,54.70
2018-04-08T02:32:42.649Z,54.20
2018-04-08T02:33:44.474Z,54.40
2018-04-08T02:34:45.549Z,54.40
2018-04-08T02:35:46.633Z,54.20
2018-04-08T02:36:47.709Z,54.10
2018-04-08T02:37:48.792Z,54.30
2018-04-08T02:38:49.884Z,54.10
2018-04-08T02:39:51.672Z,54.50
2018-04-08T02:40:52.755Z,54.50
2018-04-08T02:41:53.821Z,54.40
2018-04-08T02:42:54.884Z,54.60
2018-04-08T02:43:55.975Z,54.50
2018-04-08T02:44:57.032Z,54.60
2018-04-08T02:45:58.119Z,54.60
2018-04-08T02:46:59.185Z,54.40
2018-04-08T02:48:00.254Z,54.60
2018-04-08T02:49:01.324Z,54.50
2018-04-08T02:50:02.408Z,54.60
2018-04-08T02:51:03.503Z,54.60
2018-04-08T02:52:04.586Z,54.50
2018-04-08T02:53:05.649Z,54.70
2018-04-08T02:54:07.452Z,54.60
2018-04-08T02:55:08.551Z,54.70
2018-04-08T02:56:09.645Z,54.80
2018-04-08T02:57:11.482Z,55.00
2018-04-08T02:58:12.545Z,55.00
2018-04-08T02:59:13.637Z,55.00
2018-04-08T03:00:14.693Z,55.20
2018-04-08T03:01:15.778Z,55.00
2018-04-08T03:02:16.873Z,55.10
2018-04-08T03:03:17.931Z,55.30
2018-04-08T03:04:19.013Z,55.10
2018-04-08T03:05:20.098Z,55.30
2018-04-08T03:06:21.188Z,55.20
2018-04-08T03:07:22.253Z,55.30
2018-04-08T03:08:23.314Z,55.10
2018-04-08T03:09:24.415Z,55.20
2018-04-08T03:10:25.473Z,55.40
2018-04-08T03:11:26.537Z,55.60
2018-04-08T03:12:27.626Z,55.50
2018-04-08T03:13:28.705Z,55.40
2018-04-08T03:14:30.520Z,55.70
2018-04-08T03:15:31.581Z,55.70
2018-04-08T03:16:32.645Z,55.70
2018-04-08T03:17:33.712Z,55.80
2018-04-08T03:18:34.829Z,55.80
2018-04-08T03:19:35.992Z,56.00
2018-04-08T03:20:37.092Z,56.20
2018-04-08T03:21:38.148Z,55.90
2018-04-08T03:22:39.208Z,55.90
2018-04-08T03:23:41.025Z,56.10
2018-04-08T03:24:42.094Z,56.10
2018-04-08T03:25:43.172Z,56.00
2018-04-08T03:26:44.251Z,56.10
2018-04-08T03:27:46.053Z,56.10
2018-04-08T03:28:47.120Z,56.00
2018-04-08T03:29:48.203Z,56.10
2018-04-08T03:30:49.304Z,56.10
2018-04-08T03:31:50.379Z,56.10
2018-04-08T03:32:51.447Z,56.00
2018-04-08T03:33:52.505Z,56.00
2018-04-08T03:34:53.564Z,56.10
2018-04-08T03:35:54.629Z,56.00
2018-04-08T03:36:55.691Z,56.00
2018-04-08T03:37:56.758Z,56.00
2018-04-08T03:38:57.824Z,56.00
2018-04-08T03:39:58.892Z,55.90
2018-04-08T03:40:59.970Z,55.90
2018-04-08T03:42:01.028Z,55.90
2018-04-08T03:43:02.112Z,55.90
2018-04-08T03:44:03.908Z,55.90
2018-04-08T03:45:04.999Z,55.90
2018-04-08T03:46:06.080Z,55.90
2018-04-08T03:47:07.482Z,56.10
2018-04-08T03:48:08.561Z,56.70
2018-04-08T03:49:09.620Z,56.40
2018-04-08T03:50:10.695Z,56.10
2018-04-08T03:51:11.773Z,56.50
2018-04-08T03:52:13.597Z,56.50
2018-04-08T03:53:14.643Z,56.50
2018-04-08T03:54:15.708Z,56.60
2018-04-08T03:55:16.805Z,56.60
2018-04-08T03:56:17.881Z,56.40
2018-04-08T03:57:19.176Z,56.30
2018-04-08T03:58:20.239Z,56.20
2018-04-08T03:59:21.324Z,56.30
2018-04-08T04:00:22.424Z,55.80
2018-04-08T04:01:23.501Z,56.10
2018-04-08T04:02:24.585Z,56.20
2018-04-08T04:03:25.654Z,56.20
2018-04-08T04:04:26.699Z,56.10
2018-04-08T04:05:28.552Z,56.60
2018-04-08T04:06:29.626Z,56.50
2018-04-08T04:07:30.696Z,56.60
2018-04-08T04:08:31.745Z,56.50
2018-04-08T04:09:33.585Z,56.40
2018-04-08T04:10:34.673Z,56.50
2018-04-08T04:11:35.736Z,56.60
2018-04-08T04:12:36.812Z,56.40
2018-04-08T04:13:38.628Z,56.70
2018-04-08T04:14:39.701Z,56.60
2018-04-08T04:15:41.508Z,56.60
2018-04-08T04:16:42.572Z,56.60
2018-04-08T04:17:44.371Z,56.70
2018-04-08T04:18:57.792Z,56.60
2018-04-08T04:20:11.172Z,56.50
2018-04-08T04:21:24.568Z,56.40
2018-04-08T04:22:38.016Z,56.70
2018-04-08T04:23:51.362Z,56.30
2018-04-08T04:25:04.725Z,56.20
2018-04-08T04:26:19.049Z,56.20
2018-04-08T04:27:20.110Z,56.10
2018-04-08T04:28:21.916Z,56.20
2018-04-08T04:29:23.024Z,56.10
2018-04-08T04:30:24.100Z,56.20
2018-04-08T04:31:25.192Z,56.50
2018-04-08T04:32:26.265Z,56.60
2018-04-08T04:33:27.344Z,56.60
2018-04-08T04:34:29.156Z,56.40
2018-04-08T04:35:30.224Z,56.40
2018-04-08T04:36:32.028Z,56.10
2018-04-08T04:37:33.102Z,56.10
2018-04-08T04:38:34.174Z,56.00
2018-04-08T04:39:35.215Z,56.10
2018-04-08T04:40:36.314Z,56.10
2018-04-08T04:41:37.377Z,56.00
2018-04-08T04:42:38.444Z,55.70
2018-04-08T04:43:39.501Z,55.60
2018-04-08T04:44:40.560Z,55.70
2018-04-08T04:45:41.654Z,55.70
2018-04-08T04:46:42.846Z,55.70
2018-04-08T04:47:44.705Z,55.70
2018-04-08T04:48:45.760Z,55.70
2018-04-08T04:49:47.556Z,55.70
2018-04-08T04:50:48.630Z,55.70
2018-04-08T04:51:49.688Z,55.70
2018-04-08T04:52:50.812Z,55.70
2018-04-08T04:53:52.629Z,55.70
2018-04-08T04:54:53.688Z,55.70
2018-04-08T04:55:54.761Z,55.70
2018-04-08T04:56:55.849Z,55.70
2018-04-08T04:57:56.915Z,55.70
2018-04-08T04:58:57.999Z,55.70
2018-04-08T04:59:59.090Z,55.80
2018-04-08T05:01:00.196Z,56.20
2018-04-08T05:02:01.268Z,56.20
2018-04-08T05:03:02.360Z,56.40
2018-04-08T05:04:03.440Z,56.70
2018-04-08T05:05:04.516Z,56.60
2018-04-08T05:06:05.592Z,56.80
2018-04-08T05:07:06.677Z,56.70
2018-04-08T05:08:08.513Z,56.80
2018-04-08T05:09:09.580Z,56.80
2018-04-08T05:10:10.676Z,56.70
2018-04-08T05:11:11.747Z,56.80
2018-04-08T05:12:12.830Z,56.70
2018-04-08T05:13:13.884Z,56.80
2018-04-08T05:14:14.995Z,56.80
2018-04-08T05:15:16.057Z,56.90
2018-04-08T05:16:17.916Z,56.70
2018-04-08T05:17:19.036Z,56.70
2018-04-08T05:18:20.101Z,56.80
2018-04-08T05:19:21.148Z,56.80
2018-04-08T05:20:22.216Z,57.00
2018-04-08T05:21:23.302Z,57.20
2018-04-08T05:22:24.397Z,57.30
2018-04-08T05:23:26.196Z,57.30
2018-04-08T05:24:27.288Z,58.00
2018-04-08T05:25:28.388Z,57.30
2018-04-08T05:26:29.469Z,57.20
2018-04-08T05:27:30.625Z,57.20
2018-04-08T05:28:31.683Z,57.30
2018-04-08T05:29:32.772Z,57.40
2018-04-08T05:30:33.852Z,57.40
2018-04-08T05:31:34.908Z,57.40
2018-04-08T05:32:36.728Z,57.20
2018-04-08T05:33:37.793Z,57.20
2018-04-08T05:34:39.602Z,57.10
2018-04-08T05:35:40.668Z,57.00
2018-04-08T05:36:42.489Z,57.50
2018-04-08T05:37:43.574Z,57.50
2018-04-08T05:38:44.617Z,57.40
2018-04-08T05:39:47.608Z,57.30
2018-04-08T05:40:53.780Z,57.30
2018-04-08T05:41:55.068Z,57.60
2018-04-08T05:42:56.209Z,57.40
2018-04-08T05:43:57.290Z,57.40
2018-04-08T05:44:58.349Z,57.20
2018-04-08T05:46:00.176Z,57.40
2018-04-08T05:47:01.254Z,57.50
2018-04-08T05:48:02.331Z,57.40
2018-04-08T05:49:03.412Z,57.30
2018-04-08T05:50:04.497Z,57.10
2018-04-08T05:51:05.605Z,57.10
2018-04-08T05:52:06.676Z,57.00
2018-04-08T05:53:07.786Z,56.90
2018-04-08T05:54:08.847Z,56.80
2018-04-08T05:55:09.896Z,56.70
2018-04-08T05:56:10.992Z,56.70
2018-04-08T05:57:12.074Z,56.60
2018-04-08T05:58:13.148Z,56.60
2018-04-08T05:59:14.206Z,56.70
2018-04-08T06:00:15.269Z,56.50
2018-04-08T06:01:16.417Z,56.60
2018-04-08T06:02:17.567Z,56.60
2018-04-08T06:03:18.640Z,56.60
2018-04-08T06:04:19.712Z,56.40
2018-04-08T06:05:20.772Z,56.50
2018-04-08T06:06:21.837Z,56.80
2018-04-08T06:07:22.904Z,57.10
2018-04-08T06:08:23.981Z,56.50
2018-04-08T06:09:25.045Z,56.10
2018-04-08T06:10:26.915Z,56.10
2018-04-08T06:11:27.975Z,55.90
2018-04-08T06:12:29.052Z,56.10
2018-04-08T06:13:30.862Z,56.00
2018-04-08T06:14:31.933Z,56.00
2018-04-08T06:15:33.737Z,56.00
2018-04-08T06:16:34.796Z,56.00
2018-04-08T06:17:35.921Z,56.10
2018-04-08T06:18:36.973Z,56.80
2018-04-08T06:19:38.783Z,55.90
2018-04-08T06:20:39.877Z,55.90
2018-04-08T06:21:40.941Z,55.70
2018-04-08T06:22:42.004Z,55.80
2018-04-08T06:23:43.831Z,55.70
2018-04-08T06:24:44.916Z,55.60
2018-04-08T06:25:45.994Z,55.60
2018-04-08T06:26:47.048Z,55.60
2018-04-08T06:27:48.116Z,56.30
2018-04-08T06:28:49.193Z,55.50
2018-04-08T06:29:50.252Z,55.40
2018-04-08T06:30:51.308Z,55.50
2018-04-08T06:31:52.378Z,55.50
2018-04-08T06:32:53.438Z,55.40
2018-04-08T06:33:54.526Z,55.40
2018-04-08T06:34:55.617Z,55.10
2018-04-08T06:35:59.604Z,55.20
2018-04-08T06:37:00.717Z,55.00
2018-04-08T06:38:01.800Z,55.00
2018-04-08T06:39:02.892Z,55.00
2018-04-08T06:40:04.917Z,55.10
2018-04-08T06:41:05.988Z,55.00
2018-04-08T06:42:07.052Z,54.90
2018-04-08T06:43:08.137Z,54.80
2018-04-08T06:44:09.230Z,54.90
2018-04-08T06:45:10.301Z,54.90
2018-04-08T06:46:11.368Z,55.00
2018-04-08T06:47:13.192Z,55.50
2018-04-08T06:48:15.010Z,54.90
2018-04-08T06:49:16.424Z,54.70
2018-04-08T06:50:17.517Z,54.70
2018-04-08T06:51:18.604Z,54.80
2018-04-08T06:52:19.655Z,54.80
2018-04-08T06:53:20.718Z,54.40
2018-04-08T06:54:22.856Z,54.30
2018-04-08T06:55:24.585Z,54.40
2018-04-08T06:56:25.673Z,54.40
2018-04-08T06:57:28.168Z,54.40
2018-04-08T06:58:29.249Z,54.40
2018-04-08T06:59:30.890Z,54.30
2018-04-08T07:00:31.976Z,54.40
2018-04-08T07:01:33.049Z,54.40
2018-04-08T07:02:34.112Z,54.30
2018-04-08T07:03:35.929Z,54.70
2018-04-08T07:04:42.752Z,54.60
2018-04-08T07:05:43.940Z,54.00
2018-04-08T07:06:45.917Z,54.20
2018-04-08T07:07:47.713Z,54.20
2018-04-08T07:08:48.762Z,54.10
2018-04-08T07:09:49.873Z,54.10
2018-04-08T07:10:50.961Z,54.10
2018-04-08T07:11:54.030Z,54.00
2018-04-08T07:12:55.193Z,54.20
2018-04-08T07:13:56.256Z,54.00
2018-04-08T07:14:57.356Z,54.20
2018-04-08T07:15:58.427Z,53.80
2018-04-08T07:16:59.493Z,53.70
2018-04-08T07:18:00.558Z,53.60
2018-04-08T07:19:01.637Z,53.80
2018-04-08T07:20:02.730Z,54.70
2018-04-08T07:21:03.839Z,53.70
2018-04-08T07:22:04.912Z,53.30
2018-04-08T07:23:05.972Z,53.50
2018-04-08T07:24:07.046Z,53.30
2018-04-08T07:25:08.173Z,53.40
2018-04-08T07:26:09.257Z,53.50
2018-04-08T07:27:10.318Z,53.30
2018-04-08T07:28:11.389Z,53.40
2018-04-08T07:29:12.472Z,53.30
2018-04-08T07:30:13.572Z,53.30
2018-04-08T07:31:14.649Z,53.50
2018-04-08T07:32:15.733Z,53.10
2018-04-08T07:33:16.800Z,53.30
2018-04-08T07:34:17.893Z,53.10
2018-04-08T07:35:19.040Z,53.00
2018-04-08T07:36:20.145Z,53.00
2018-04-08T07:37:21.260Z,52.80
2018-04-08T07:38:23.094Z,53.10
2018-04-08T07:39:24.193Z,53.10
2018-04-08T07:40:25.272Z,52.80
2018-04-08T07:41:27.141Z,52.70
2018-04-08T07:42:28.212Z,52.70
2018-04-08T07:43:29.365Z,52.60
2018-04-08T07:44:31.216Z,53.20
2018-04-08T07:45:32.276Z,53.10
2018-04-08T07:46:34.096Z,52.40
2018-04-08T07:47:35.157Z,52.40
2018-04-08T07:48:36.240Z,52.50
2018-04-08T07:49:37.356Z,52.70
2018-04-08T07:50:38.458Z,52.90
2018-04-08T07:51:39.529Z,52.80
2018-04-08T07:52:40.617Z,52.70
2018-04-08T07:53:41.717Z,52.50
2018-04-08T07:54:42.859Z,52.40
2018-04-08T07:55:44.092Z,52.20
2018-04-08T07:56:45.189Z,52.10
2018-04-08T07:57:46.324Z,52.20
2018-04-08T07:58:47.445Z,52.10
2018-04-08T07:59:48.569Z,52.20
2018-04-08T08:00:49.649Z,52.40
2018-04-08T08:01:50.731Z,52.30
2018-04-08T08:02:51.821Z,52.10
2018-04-08T08:03:52.919Z,52.00
2018-04-08T08:04:54.102Z,52.00
2018-04-08T08:05:55.192Z,52.00
2018-04-08T08:06:56.268Z,52.10
2018-04-08T08:07:58.096Z,51.90
2018-04-08T08:08:59.147Z,51.90
2018-04-08T08:10:01.006Z,51.30
2018-04-08T08:11:02.083Z,51.30
2018-04-08T08:12:03.144Z,51.20
2018-04-08T08:13:04.268Z,51.50
2018-04-08T08:14:05.337Z,51.60
2018-04-08T08:15:06.413Z,50.70
2018-04-08T08:16:07.806Z,51.20
2018-04-08T08:17:08.881Z,51.20
2018-04-08T08:18:09.962Z,50.90
2018-04-08T08:19:11.782Z,50.80
2018-04-08T08:20:12.896Z,50.70
2018-04-08T08:21:13.960Z,50.90
2018-04-08T08:22:15.811Z,51.00
2018-04-08T08:23:17.318Z,51.00
2018-04-08T08:24:18.638Z,50.90
2018-04-08T08:25:19.712Z,51.00
2018-04-08T08:26:20.769Z,50.50
2018-04-08T08:27:21.888Z,50.50
2018-04-08T08:28:22.966Z,50.60
2018-04-08T08:29:24.042Z,50.40
2018-04-08T08:30:25.110Z,50.50
2018-04-08T08:31:26.942Z,50.30
2018-04-08T08:32:28.031Z,50.30
2018-04-08T08:33:29.106Z,50.70
2018-04-08T08:34:30.219Z,50.70
2018-04-08T08:35:31.281Z,50.70
2018-04-08T08:36:32.364Z,50.70
2018-04-08T08:37:33.497Z,50.70
2018-04-08T08:38:34.580Z,51.10
2018-04-08T08:39:35.652Z,50.60
2018-04-08T08:40:36.721Z,50.50
2018-04-08T08:41:37.825Z,50.20
2018-04-08T08:42:38.848Z,50.10
2018-04-08T08:43:39.969Z,50.20
2018-04-08T08:44:41.013Z,50.40
2018-04-08T08:45:42.084Z,50.10
2018-04-08T08:46:43.143Z,50.30
2018-04-08T08:47:44.224Z,49.90
2018-04-08T08:48:45.284Z,49.80
2018-04-08T08:49:46.341Z,50.00
2018-04-08T08:50:48.205Z,50.00
2018-04-08T08:51:49.287Z,49.90
2018-04-08T08:52:50.348Z,50.10
2018-04-08T08:53:52.159Z,49.80
2018-04-08T08:54:53.254Z,49.80
2018-04-08T08:55:55.040Z,49.90
2018-04-08T08:56:56.131Z,49.90
2018-04-08T08:57:57.168Z,49.50
2018-04-08T08:58:58.252Z,49.50
2018-04-08T08:59:59.326Z,49.70
2018-04-08T09:01:00.400Z,50.00
2018-04-08T09:02:01.481Z,50.00
2018-04-08T09:03:02.586Z,49.40
2018-04-08T09:04:03.679Z,49.20
2018-04-08T09:05:05.069Z,49.20
2018-04-08T09:06:06.262Z,49.00
2018-04-08T09:07:07.334Z,48.90
2018-04-08T09:08:08.436Z,48.70
2018-04-08T09:09:09.506Z,48.60
2018-04-08T09:10:10.585Z,48.60
2018-04-08T09:11:11.653Z,48.60
2018-04-08T09:12:12.748Z,49.00
2018-04-08T09:13:13.796Z,49.00
2018-04-08T09:14:14.886Z,49.10
2018-04-08T09:15:15.960Z,49.20
2018-04-08T09:16:17.043Z,49.00
2018-04-08T09:17:18.108Z,48.90
2018-04-08T09:18:19.200Z,49.10
2018-04-08T09:20:59.600Z,48.70
2018-04-08T09:22:15.658Z,48.90
2018-04-08T09:23:31.700Z,49.10
2018-04-08T09:24:32.831Z,49.00
2018-04-08T09:25:37.837Z,49.00
2018-04-08T09:26:38.931Z,48.80
2018-04-08T09:27:39.996Z,48.80
2018-04-08T09:28:41.062Z,48.90
2018-04-08T09:29:42.145Z,49.50
2018-04-08T09:30:43.234Z,48.70
2018-04-08T09:31:44.337Z,48.70
2018-04-08T09:32:45.387Z,48.30
2018-04-08T09:33:46.473Z,48.50
2018-04-08T09:34:47.563Z,48.20
2018-04-08T09:35:49.389Z,48.10
2018-04-08T09:36:50.754Z,48.10
2018-04-08T09:37:52.548Z,48.20
2018-04-08T09:38:53.600Z,48.20
2018-04-08T09:39:54.677Z,48.00
2018-04-08T09:40:55.754Z,48.00
2018-04-08T09:41:56.816Z,47.90
2018-04-08T09:42:57.873Z,48.00
2018-04-08T09:43:59.667Z,48.00
2018-04-08T09:45:00.739Z,48.00
2018-04-08T09:46:02.660Z,48.00
2018-04-08T09:47:03.728Z,47.70
2018-04-08T09:48:04.813Z,47.70
2018-04-08T09:49:05.893Z,47.50
2018-04-08T09:50:07.708Z,47.20
2018-04-08T09:51:09.543Z,47.10
2018-04-08T09:52:10.616Z,47.10
2018-04-08T09:53:11.684Z,47.20
2018-04-08T09:54:12.783Z,47.10
2018-04-08T09:55:13.892Z,46.80
2018-04-08T09:56:14.965Z,46.40
2018-04-08T09:57:16.060Z,46.00
2018-04-08T09:58:19.043Z,45.80
2018-04-08T09:59:20.122Z,46.10
2018-04-08T10:00:25.016Z,45.70
2018-04-08T10:01:31.105Z,45.40
2018-04-08T10:02:39.059Z,45.50
2018-04-08T10:03:47.069Z,45.70
2018-04-08T10:04:48.169Z,45.70
2018-04-08T10:05:49.267Z,45.70
2018-04-08T10:06:50.392Z,45.30
2018-04-08T10:07:51.465Z,45.50
2018-04-08T10:08:52.528Z,45.50
2018-04-08T10:09:53.604Z,45.50
2018-04-08T10:10:54.669Z,45.40
2018-04-08T10:11:56.505Z,44.30
2018-04-08T10:12:57.568Z,44.30
2018-04-08T10:13:58.663Z,42.50
2018-04-08T10:14:59.775Z,43.20
2018-04-08T10:16:00.855Z,42.90
2018-04-08T10:17:02.656Z,42.40
2018-04-08T10:18:03.742Z,42.40
2018-04-08T10:19:05.564Z,42.30
2018-04-08T10:20:06.652Z,42.30
2018-04-08T10:21:07.770Z,42.90
2018-04-08T10:22:08.869Z,42.20
2018-04-08T10:23:10.696Z,42.40
2018-04-08T10:24:11.785Z,42.30
2018-04-08T10:25:12.871Z,42.10
2018-04-08T10:26:13.961Z,43.00
2018-04-08T10:27:15.037Z,41.90
2018-04-08T10:28:16.101Z,41.30
2018-04-08T10:29:17.251Z,41.60
2018-04-08T10:30:18.288Z,40.90
2018-04-08T10:32:26.143Z,40.20
2018-04-08T10:33:27.225Z,40.30
2018-04-08T10:34:28.297Z,40.30
2018-04-08T10:35:29.416Z,40.30
2018-04-08T10:36:30.495Z,40.40
2018-04-08T10:37:32.308Z,41.30
2018-04-08T10:38:33.383Z,41.10
2018-04-08T10:39:34.454Z,41.10
2018-04-08T10:40:35.526Z,40.50
2018-04-08T10:41:36.575Z,39.70
2018-04-08T10:42:37.737Z,39.50
2018-04-08T10:43:38.785Z,39.20
2018-04-08T10:44:39.909Z,39.50
2018-04-08T10:45:40.940Z,39.40
2018-04-08T10:46:42.011Z,39.10
2018-04-08T10:47:43.136Z,39.50
2018-04-08T10:48:44.192Z,39.90
2018-04-08T10:49:46.004Z,39.70
2018-04-08T10:50:47.092Z,39.60
2018-04-08T10:51:48.209Z,39.70
2018-04-08T10:52:49.350Z,39.70
2018-04-08T10:53:50.423Z,39.40
2018-04-08T10:54:51.513Z,39.30
2018-04-08T10:55:52.588Z,39.40
2018-04-08T10:56:53.672Z,39.30
2018-04-08T10:57:54.760Z,39.00
2018-04-08T10:58:55.831Z,38.50
2018-04-08T10:59:57.644Z,38.00
2018-04-08T11:00:58.700Z,38.00
2018-04-08T11:01:59.773Z,37.70
2018-04-08T11:03:00.861Z,38.70
2018-04-08T11:04:01.929Z,39.10
2018-04-08T11:05:03.041Z,39.00
2018-04-08T11:06:04.113Z,39.80
2018-04-08T11:07:05.176Z,39.80
2018-04-08T11:08:06.277Z,39.80
2018-04-08T11:09:07.362Z,39.60
2018-04-08T11:10:08.480Z,39.50
2018-04-08T11:11:09.508Z,39.50
2018-04-08T11:12:10.637Z,39.40
2018-04-08T11:13:11.720Z,38.60
2018-04-08T11:14:13.546Z,38.70
2018-04-08T11:15:14.620Z,38.60
2018-04-08T11:16:15.737Z,38.50
2018-04-08T11:17:16.801Z,38.40
2018-04-08T11:18:17.893Z,39.10
2018-04-08T11:19:18.971Z,38.20
2018-04-08T11:20:20.081Z,38.10
2018-04-08T11:21:21.184Z,38.10
2018-04-08T11:22:22.280Z,38.20
2018-04-08T11:23:23.348Z,37.90
2018-04-08T11:24:25.348Z,38.50
2018-04-08T11:25:26.444Z,38.40
2018-04-08T11:26:28.267Z,38.10
2018-04-08T11:27:29.340Z,37.90
2018-04-08T11:28:30.413Z,38.00
2018-04-08T11:29:31.498Z,38.20
2018-04-08T11:30:32.563Z,37.70
2018-04-08T11:31:33.715Z,37.20
2018-04-08T11:32:34.712Z,36.80
2018-04-08T11:33:35.807Z,37.50
2018-04-08T11:34:37.692Z,37.30
2018-04-08T11:35:38.801Z,37.30
2018-04-08T11:36:39.886Z,37.20
2018-04-08T11:37:40.997Z,37.30
2018-04-08T11:38:42.153Z,36.70
2018-04-08T11:39:43.289Z,35.10
2018-04-08T11:40:44.404Z,35.80
2018-04-08T11:41:45.499Z,35.30
2018-04-08T11:42:46.580Z,35.40
2018-04-08T11:43:47.697Z,35.90
2018-04-08T11:44:48.781Z,35.80
2018-04-08T11:45:49.862Z,35.90
2018-04-08T11:46:50.960Z,35.10
2018-04-08T11:47:52.780Z,34.50
2018-04-08T11:48:53.848Z,34.40
2018-04-08T11:49:54.945Z,34.10
2018-04-08T11:50:56.069Z,33.00
2018-04-08T11:51:57.133Z,34.60
2018-04-08T11:52:58.272Z,33.70
2018-04-08T11:53:59.476Z,34.50
2018-04-08T11:55:00.584Z,34.80
2018-04-08T11:56:01.677Z,35.00
2018-04-08T11:57:02.824Z,34.70
2018-04-08T11:58:03.918Z,36.00
2018-04-08T11:59:05.785Z,35.60
2018-04-08T12:00:06.884Z,35.50
2018-04-08T12:01:07.984Z,35.60
2018-04-08T12:02:10.025Z,35.40
2018-04-08T12:03:11.128Z,35.40
2018-04-08T12:04:12.277Z,35.90
2018-04-08T12:05:13.412Z,34.60
2018-04-08T12:06:14.494Z,34.90
2018-04-08T12:07:15.582Z,35.20
2018-04-08T12:08:16.678Z,34.80
2018-04-08T12:09:17.758Z,35.00
2018-04-08T12:10:18.910Z,33.80
2018-04-08T12:11:20.014Z,34.60
2018-04-08T12:12:21.112Z,34.70
2018-04-08T12:13:22.214Z,34.20
2018-04-08T12:14:23.334Z,34.00
2018-04-08T12:15:25.156Z,33.50
2018-04-08T12:16:26.953Z,33.70
2018-04-08T12:17:28.029Z,33.70
2018-04-08T12:18:29.105Z,33.90
2018-04-08T12:19:30.171Z,34.10
2018-04-08T12:20:31.238Z,33.60
2018-04-08T12:21:32.326Z,33.60
2018-04-08T12:22:33.406Z,33.60
2018-04-08T12:23:34.470Z,33.70
2018-04-08T12:24:35.635Z,33.70
2018-04-08T12:25:36.706Z,33.70
2018-04-08T12:26:38.701Z,33.30
2018-04-08T12:27:39.806Z,33.00
2018-04-08T12:28:40.897Z,33.90
2018-04-08T12:29:42.713Z,32.40
2018-04-08T12:30:43.832Z,32.30
2018-04-08T12:31:44.898Z,32.20
2018-04-08T12:32:45.993Z,32.50
2018-04-08T12:33:47.118Z,32.70
2018-04-08T12:34:48.254Z,32.60
2018-04-08T12:35:49.286Z,32.30
2018-04-08T12:36:50.568Z,32.30
2018-04-08T12:37:51.654Z,33.00
2018-04-08T12:38:52.724Z,31.40
2018-04-08T12:39:53.817Z,31.50
2018-04-08T12:40:55.367Z,31.80
2018-04-08T12:41:56.568Z,32.60
2018-04-08T12:42:58.802Z,33.20
2018-04-08T12:43:59.872Z,33.30
2018-04-08T12:45:00.956Z,33.50
2018-04-08T12:46:02.018Z,33.20
2018-04-08T12:47:03.807Z,33.60
2018-04-08T12:48:04.877Z,33.50
2018-04-08T12:49:05.970Z,33.80
2018-04-08T12:50:07.060Z,33.50
2018-04-08T12:51:08.891Z,33.60
2018-04-08T12:52:10.009Z,33.70
2018-04-08T12:53:11.073Z,34.10
2018-04-08T12:54:12.888Z,33.80
2018-04-08T12:55:13.956Z,33.60
2018-04-08T12:56:15.772Z,34.20
2018-04-08T12:57:16.831Z,34.20
2018-04-08T12:58:17.871Z,34.70
2018-04-08T12:59:19.677Z,33.10
2018-04-08T13:00:20.742Z,33.00
2018-04-08T13:01:22.552Z,33.40
2018-04-08T13:02:23.628Z,33.30
2018-04-08T13:03:24.749Z,33.10
2018-04-08T13:04:25.820Z,33.20
2018-04-08T13:05:26.940Z,32.00
2018-04-08T13:06:29.189Z,31.60
2018-04-08T13:07:30.996Z,31.40
2018-04-08T13:08:32.088Z,31.40
2018-04-08T13:09:33.160Z,31.10
2018-04-08T13:10:34.257Z,30.90
2018-04-08T13:11:35.324Z,31.10
2018-04-08T13:12:36.432Z,30.80
2018-04-08T13:13:37.512Z,30.40